Time;durP1;ratioP1;P1;durP2;ratioP2;P2;SDS_P1;SDS_P2;PMS_P1;PMS_P2;Temp;Humidity;BMP_temperature;BMP_pressure;BME280_temperature;BME280_humidity;BME280_pressure;Samples;Min_cycle;Max_cycle;Signal;HPM_P1;HPM_P2
2021/06/12 00:02:12;;;;;;;13.13;11.65;;;;;;;17.86;100.00;96593.41;4970865;28;20058;-61
2021/06/12 00:04:40;;;;;;;13.60;11.35;;;;;;;17.76;100.00;96599.88;4968165;28;20474;-60
2021/06/12 00:07:08;;;;;;;12.98;11.68;;;;;;;17.71;100.00;96593.41;4973231;28;20074;-60
2021/06/12 00:09:36;;;;;;;14.07;12.23;;;;;;;17.81;100.00;96598.50;4968740;28;20086;-59
2021/06/12 00:12:05;;;;;;;14.07;12.57;;;;;;;17.71;100.00;96596.91;4975542;28;20070;-59
2021/06/12 00:14:34;;;;;;;17.83;12.32;;;;;;;17.39;100.00;96600.78;4967018;28;20085;-60
2021/06/12 00:17:01;;;;;;;14.25;12.80;;;;;;;17.30;100.00;96597.38;4969846;28;20077;-59
2021/06/12 00:19:31;;;;;;;14.32;12.88;;;;;;;17.39;100.00;96590.13;4972474;28;20074;-60
2021/06/12 00:21:58;;;;;;;14.25;12.82;;;;;;;17.47;100.00;96599.88;4972571;28;20082;-62
2021/06/12 00:24:26;;;;;;;15.05;12.65;;;;;;;17.56;100.00;96599.59;4968573;28;20063;-61
2021/06/12 00:26:55;;;;;;;15.60;13.07;;;;;;;17.56;100.00;96602.25;4970937;28;20104;-61
2021/06/12 00:29:23;;;;;;;15.02;13.43;;;;;;;17.51;100.00;96598.47;4968685;28;20074;-61
2021/06/12 00:31:51;;;;;;;15.35;12.60;;;;;;;17.54;100.00;96587.44;4966802;28;20541;-61
2021/06/12 00:34:19;;;;;;;15.02;13.52;;;;;;;17.65;100.00;96595.00;4969233;28;20093;-60
2021/06/12 00:36:48;;;;;;;14.52;13.05;;;;;;;17.61;100.00;96588.34;4972328;28;20089;-60
2021/06/12 00:39:16;;;;;;;14.68;13.07;;;;;;;17.63;100.00;96599.69;4969266;28;20074;-59
2021/06/12 00:41:44;;;;;;;15.43;13.52;;;;;;;17.53;100.00;96597.28;4970040;28;20054;-60
2021/06/12 00:44:12;;;;;;;18.25;14.07;;;;;;;17.67;100.00;96586.81;4969367;28;20066;-60
2021/06/12 00:46:40;;;;;;;16.45;13.75;;;;;;;17.55;100.00;96597.94;4970996;28;20081;-60
2021/06/12 00:49:10;;;;;;;16.73;13.82;;;;;;;17.60;100.00;96599.22;4972672;28;20097;-57
2021/06/12 00:51:37;;;;;;;14.52;13.05;;;;;;;17.86;100.00;96596.09;4970889;28;20074;-61
2021/06/12 00:54:07;;;;;;;16.55;13.00;;;;;;;18.05;100.00;96584.81;4971363;28;20074;-61
2021/06/12 00:56:35;;;;;;;15.98;14.07;;;;;;;18.11;100.00;96586.75;4968122;28;20074;-59
2021/06/12 00:59:03;;;;;;;14.70;13.07;;;;;;;17.93;100.00;96595.16;4970957;28;20111;-61
2021/06/12 01:01:48;;;;;;;16.17;13.05;;;;;;;17.93;100.00;96589.00;4974190;28;20447;-61
2021/06/12 01:04:16;;;;;;;15.57;12.82;;;;;;;18.17;100.00;96598.50;4974116;28;20083;-62
2021/06/12 01:06:49;;;;;;;15.18;13.18;;;;;;;17.86;100.00;96593.41;4967455;28;20078;-60
2021/06/12 01:09:21;;;;;;;15.60;12.60;;;;;;;17.83;100.00;96597.31;4975920;28;20585;-61
2021/06/12 01:11:58;;;;;;;13.80;12.32;;;;;;;17.94;100.00;96593.31;4970609;28;20527;-59
2021/06/12 01:14:26;;;;;;;17.13;12.55;;;;;;;17.87;100.00;96592.41;4971520;28;20062;-59
2021/06/12 01:17:01;;;;;;;14.02;11.85;;;;;;;18.06;100.00;96580.31;4967700;28;20077;-61
2021/06/12 01:19:49;;;;;;;13.55;11.82;;;;;;;17.78;100.00;96578.34;4969417;28;20089;-61
2021/06/12 01:22:22;;;;;;;14.18;11.82;;;;;;;17.84;100.00;96582.13;4966612;28;20545;-61
2021/06/12 01:25:05;;;;;;;12.85;11.55;;;;;;;17.77;100.00;96582.03;4976054;28;20082;-60
2021/06/12 01:28:11;;;;;;;14.00;11.68;;;;;;;17.82;100.00;96592.97;4965535;28;20378;-61
2021/06/12 01:30:42;;;;;;;13.35;11.68;;;;;;;17.89;100.00;96590.38;4942123;28;21370;-58
2021/06/12 01:33:13;;;;;;;13.38;11.73;;;;;;;17.93;100.00;96591.69;4965357;28;20728;-61
2021/06/12 01:35:43;;;;;;;20.08;12.10;;;;;;;17.72;100.00;96579.91;4970178;28;20070;-60
2021/06/12 01:38:13;;;;;;;12.82;11.50;;;;;;;17.73;100.00;96578.88;4966903;28;20515;-60
2021/06/12 01:40:44;;;;;;;12.80;11.50;;;;;;;17.73;100.00;96570.06;4972888;28;20067;-61
2021/06/12 01:43:14;;;;;;;13.38;11.77;;;;;;;17.58;100.00;96579.91;4967386;28;20094;-61
2021/06/12 01:45:45;;;;;;;12.80;11.50;;;;;;;17.48;100.00;96578.38;4973066;28;20074;-61
2021/06/12 01:48:13;;;;;;;11.90;10.60;;;;;;;17.47;100.00;96575.88;4969459;28;20074;-59
2021/06/12 01:50:42;;;;;;;15.70;11.63;;;;;;;17.33;100.00;96577.53;4969114;28;20490;-61
2021/06/12 01:53:14;;;;;;;12.77;10.70;;;;;;;17.23;100.00;96583.13;4967287;28;20093;-60
2021/06/12 01:55:43;;;;;;;13.10;11.45;;;;;;;17.18;100.00;96576.72;4973045;28;20069;-61
2021/06/12 01:58:17;;;;;;;13.27;11.48;;;;;;;17.32;100.00;96575.88;4967640;28;20093;-59
2021/06/12 02:00:47;;;;;;;11.93;10.73;;;;;;;17.31;100.00;96576.91;4968920;28;20078;-61
2021/06/12 02:03:16;;;;;;;13.88;11.20;;;;;;;17.23;100.00;96579.63;4970393;28;20565;-60
2021/06/12 02:05:45;;;;;;;12.55;10.82;;;;;;;17.23;100.00;96572.47;4966579;28;20070;-61
2021/06/12 02:08:14;;;;;;;13.95;10.80;;;;;;;17.37;100.00;96570.81;4969270;28;20062;-61
2021/06/12 02:10:42;;;;;;;11.35;10.15;;;;;;;17.16;100.00;96571.53;4970823;28;20553;-59
2021/06/12 02:13:10;;;;;;;12.40;11.02;;;;;;;17.14;100.00;96562.94;4969799;28;20082;-60
2021/06/12 02:15:39;;;;;;;12.45;10.60;;;;;;;17.06;100.00;96574.47;4970532;28;20082;-61
2021/06/12 02:18:09;;;;;;;11.43;10.32;;;;;;;17.05;100.00;96572.81;4972904;28;20475;-60
2021/06/12 02:20:38;;;;;;;12.55;10.68;;;;;;;17.20;100.00;96577.34;4970156;28;20074;-57
2021/06/12 02:23:07;;;;;;;13.30;10.30;;;;;;;17.09;100.00;96568.78;4976757;28;20070;-61
2021/06/12 02:25:36;;;;;;;12.57;10.50;;;;;;;17.27;100.00;96567.59;4972378;28;20062;-61
2021/06/12 02:28:06;;;;;;;13.70;10.30;;;;;;;17.11;100.00;96565.97;4971646;28;20075;-60
2021/06/12 02:30:36;;;;;;;;;;;;;;;17.03;100.00;96558.03;4976088;28;20462;-59
2021/06/12 02:33:05;;;;;;;11.60;10.35;;;;;;;16.94;100.00;96562.63;4971769;28;19961;-61
2021/06/12 02:35:35;;;;;;;11.03;9.87;;;;;;;17.02;100.00;96567.88;4971268;28;20055;-58
2021/06/12 02:38:02;;;;;;;11.50;9.73;;;;;;;16.76;100.00;96568.28;4980837;28;20113;-61
2021/06/12 02:40:30;;;;;;;11.07;9.98;;;;;;;17.00;100.00;96569.06;4968537;28;20535;-57
2021/06/12 02:42:59;;;;;;;13.43;11.38;;;;;;;16.84;100.00;96564.72;4975481;28;20471;-60
2021/06/12 02:45:27;;;;;;;11.55;10.15;;;;;;;16.65;100.00;96570.50;4970474;28;20081;-60
2021/06/12 02:47:57;;;;;;;12.02;10.70;;;;;;;16.72;100.00;96568.78;4974202;28;20479;-59
2021/06/12 02:50:28;;;;;;;10.80;9.80;;;;;;;16.82;100.00;96566.72;4970594;28;20067;-61
2021/06/12 02:53:02;;;;;;;10.95;9.85;;;;;;;16.82;100.00;96575.53;4980106;28;20065;-61
2021/06/12 02:55:31;;;;;;;12.88;10.45;;;;;;;16.85;100.00;96571.69;4969070;28;20494;-60
2021/06/12 02:57:59;;;;;;;11.55;9.75;;;;;;;16.75;100.00;96574.63;4971669;28;20074;-61
2021/06/12 03:00:28;;;;;;;14.07;10.35;;;;;;;16.67;100.00;96572.00;4972365;28;20071;-61
2021/06/12 03:02:56;;;;;;;11.98;10.10;;;;;;;16.69;100.00;96578.00;4967621;28;20144;-61
2021/06/12 03:05:26;;;;;;;11.65;9.52;;;;;;;16.92;100.00;96577.13;4971827;28;20070;-62
2021/06/12 03:07:55;;;;;;;11.57;10.30;;;;;;;16.46;100.00;96579.84;4971097;28;20058;-61
2021/06/12 03:10:27;;;;;;;11.02;9.77;;;;;;;16.59;100.00;96582.72;4971137;28;20073;-60
2021/06/12 03:12:56;;;;;;;11.65;10.13;;;;;;;16.63;100.00;96581.34;4971215;28;20097;-60
2021/06/12 03:15:25;;;;;;;11.68;9.98;;;;;;;16.62;100.00;96585.03;4972780;28;20081;-61
2021/06/12 03:17:54;;;;;;;11.98;10.68;;;;;;;16.67;100.00;96585.31;4969890;28;20070;-62
2021/06/12 03:20:23;;;;;;;11.15;9.98;;;;;;;16.68;100.00;96578.16;4981009;28;20472;-61
2021/06/12 03:22:52;;;;;;;12.85;9.88;;;;;;;16.32;100.00;96584.94;4970864;28;20077;-62
2021/06/12 03:25:22;;;;;;;11.30;10.13;;;;;;;16.43;100.00;96590.84;4965944;28;20082;-61
2021/06/12 03:27:52;;;;;;;12.65;10.10;;;;;;;16.47;100.00;96590.28;4971051;28;20092;-61
2021/06/12 03:30:20;;;;;;;;;;;;;;;16.65;100.00;96597.97;4969721;28;20082;-61
2021/06/12 03:32:48;;;;;;;16.08;10.48;;;;;;;16.60;100.00;96589.69;4967615;28;19988;-61
2021/06/12 03:35:17;;;;;;;10.65;9.55;;;;;;;16.53;100.00;96596.75;4970637;28;20432;-61
2021/06/12 03:37:45;;;;;;;11.45;9.77;;;;;;;16.67;100.00;96600.47;4967754;28;20811;-61
2021/06/12 03:40:14;;;;;;;10.38;9.38;;;;;;;16.68;100.00;96602.13;5012854;22;20080;-54
2021/06/12 03:42:43;;;;;;;11.70;10.23;;;;;;;16.73;100.00;96599.75;5029806;28;20072;-53
2021/06/12 03:45:14;;;;;;;11.45;9.65;;;;;;;16.93;100.00;96600.09;5028625;28;20076;-51
2021/06/12 03:47:42;;;;;;;11.20;10.00;;;;;;;16.93;100.00;96597.41;5027071;28;20080;-54
2021/06/12 03:50:12;;;;;;;10.05;9.15;;;;;;;17.02;100.00;96604.34;5026156;28;20537;-53
2021/06/12 03:52:41;;;;;;;11.77;9.37;;;;;;;17.13;100.00;96598.56;5016883;28;20061;-56
2021/06/12 03:55:09;;;;;;;10.20;9.15;;;;;;;18.03;100.00;96589.50;5016021;28;20074;-54
2021/06/12 03:57:38;;;;;;;11.52;9.10;;;;;;;18.52;100.00;96578.13;5025911;28;20085;-53
2021/06/12 04:00:08;;;;;;;11.40;9.40;;;;;;;19.05;100.00;96580.41;5016914;28;20123;-53
2021/06/12 04:02:50;;;;;;;11.23;9.00;;;;;;;19.55;100.00;96581.97;5021441;28;20065;-49
2021/06/12 04:05:19;;;;;;;9.82;8.93;;;;;;;19.56;100.00;96588.97;5023083;28;20064;-55
2021/06/12 04:07:47;;;;;;;9.82;8.60;;;;;;;20.62;100.00;96581.34;5026593;28;20057;-54
2021/06/12 04:10:14;;;;;;;9.82;8.60;;;;;;;20.69;100.00;96588.56;5017384;28;20084;-53
2021/06/12 04:12:42;;;;;;;9.10;8.15;;;;;;;20.15;100.00;96590.25;5025875;28;20612;-53
2021/06/12 04:15:11;;;;;;;9.60;8.35;;;;;;;21.15;100.00;96591.22;5018180;28;20064;-51
2021/06/12 04:17:41;;;;;;;9.20;8.40;;;;;;;20.67;100.00;96590.59;5019947;28;20536;-51
2021/06/12 04:20:12;;;;;;;10.20;8.43;;;;;;;21.26;100.00;96587.91;5018698;28;20072;-53
2021/06/12 04:23:10;;;;;;;8.95;8.10;;;;;;;21.63;100.00;96590.13;5020065;28;20037;-49
2021/06/12 04:25:38;;;;;;;9.10;7.45;;;;;;;22.87;100.00;96583.50;5018198;28;20069;-51
2021/06/12 04:28:06;;;;;;;8.55;7.75;;;;;;;22.76;100.00;96582.34;5021343;28;20062;-53
2021/06/12 04:30:35;;;;;;;8.45;7.65;;;;;;;22.17;100.00;96591.59;5025308;28;20065;-55
2021/06/12 04:33:04;;;;;;;8.57;7.72;;;;;;;21.68;100.00;96595.66;5020247;28;20076;-51
2021/06/12 04:35:33;;;;;;;8.70;7.80;;;;;;;22.33;100.00;96592.94;5018556;28;20057;-54
2021/06/12 04:38:01;;;;;;;8.65;7.85;;;;;;;21.96;100.00;96603.44;5024181;28;20072;-55
2021/06/12 04:40:31;;;;;;;8.90;7.32;;;;;;;22.41;100.00;96598.09;5019309;28;20069;-53
2021/06/12 04:42:59;;;;;;;8.50;7.63;;;;;;;21.93;100.00;96601.19;5024487;28;20077;-54
2021/06/12 04:45:27;;;;;;;8.52;7.20;;;;;;;22.09;100.00;96602.53;5024325;28;20472;-57
2021/06/12 04:47:55;;;;;;;8.27;7.18;;;;;;;22.38;100.00;96602.03;5021886;28;20065;-54
2021/06/12 04:50:24;;;;;;;7.60;6.90;;;;;;;22.10;100.00;96596.16;5012000;28;20045;-52
2021/06/12 04:52:53;;;;;;;9.70;7.28;;;;;;;21.17;100.00;96599.06;5025183;28;20069;-58
2021/06/12 04:55:22;;;;;;;;;;;;;;;22.65;100.00;96594.63;5020931;28;20081;-51
2021/06/12 04:57:50;;;;;;;8.15;7.35;;;;;;;22.46;100.00;96593.69;5021003;28;20401;-54
2021/06/12 05:00:18;;;;;;;7.80;7.10;;;;;;;22.47;100.00;96591.81;5019757;28;20414;-54
2021/06/12 05:02:46;;;;;;;8.00;7.00;;;;;;;22.77;100.00;96599.28;5017274;28;20061;-57
2021/06/12 05:05:14;;;;;;;7.63;6.82;;;;;;;23.25;100.00;96602.22;5020701;28;20068;-55
2021/06/12 05:07:42;;;;;;;8.02;7.20;;;;;;;22.22;100.00;96594.47;5021004;28;20061;-57
2021/06/12 05:10:12;;;;;;;7.85;6.88;;;;;;;23.21;98.27;96603.72;5016664;28;20089;-57
2021/06/12 05:12:40;;;;;;;10.82;7.45;;;;;;;22.70;100.00;96602.84;5018994;28;20104;-52
2021/06/12 05:15:10;;;;;;;7.72;6.97;;;;;;;23.00;100.00;96602.25;5020986;28;20092;-58
2021/06/12 05:17:40;;;;;;;8.57;7.00;;;;;;;23.63;94.35;96599.34;5013335;28;20072;-56
2021/06/12 05:20:10;;;;;;;7.68;6.97;;;;;;;22.72;100.00;96599.94;5017911;28;20065;-57
2021/06/12 05:22:42;;;;;;;8.40;7.28;;;;;;;23.12;97.47;96596.97;5018587;28;20068;-54
2021/06/12 05:25:13;;;;;;;7.43;6.72;;;;;;;23.25;99.35;96604.09;5021007;28;20133;-55
2021/06/12 05:27:41;;;;;;;7.68;6.97;;;;;;;23.19;92.61;96603.09;5023466;28;20095;-55
2021/06/12 05:30:10;;;;;;;9.68;7.07;;;;;;;23.20;97.57;96602.09;5022275;28;20974;-52
2021/06/12 05:32:38;;;;;;;7.75;6.93;;;;;;;24.11;85.78;96593.22;5020648;28;20057;-54
2021/06/12 05:35:07;;;;;;;8.07;6.80;;;;;;;23.11;99.03;96598.84;5017534;28;20525;-52
2021/06/12 05:37:35;;;;;;;8.73;7.43;;;;;;;23.25;98.36;96604.09;5019816;28;20081;-53
2021/06/12 05:40:04;;;;;;;7.63;6.82;;;;;;;23.02;97.59;96602.88;5017983;28;20168;-54
2021/06/12 05:42:34;;;;;;;7.70;7.00;;;;;;;23.30;93.54;96605.09;5020786;28;20072;-56
2021/06/12 05:45:02;;;;;;;8.03;7.00;;;;;;;24.01;86.54;96611.81;5019883;28;20069;-56
2021/06/12 05:47:29;;;;;;;7.72;6.68;;;;;;;22.72;96.83;96616.91;5013249;28;20160;-58
2021/06/12 05:49:57;;;;;;;8.05;7.35;;;;;;;22.59;100.00;96617.00;5021019;28;20065;-54
2021/06/12 05:52:25;;;;;;;8.43;7.63;;;;;;;23.40;94.49;96610.78;5018632;28;20069;-57
2021/06/12 05:54:53;;;;;;;8.02;7.32;;;;;;;23.07;99.75;96608.41;5022536;28;20560;-55
2021/06/12 05:57:21;;;;;;;7.93;7.13;;;;;;;23.54;94.23;96599.91;5018266;28;20782;-49
2021/06/12 05:59:50;;;;;;;9.25;7.00;;;;;;;23.79;89.28;96600.69;5018526;28;20068;-53
2021/06/12 06:02:19;;;;;;;7.68;6.90;;;;;;;23.48;93.67;96601.59;5019612;28;20069;-52
2021/06/12 06:04:47;;;;;;;7.43;6.72;;;;;;;23.60;91.46;96609.75;5017530;28;20069;-52
2021/06/12 06:07:17;;;;;;;8.68;7.07;;;;;;;23.23;94.36;96607.03;5020874;28;20081;-57
2021/06/12 06:09:45;;;;;;;;;;;;;;;22.97;100.00;96597.31;5023618;28;20080;-52
2021/06/12 06:12:13;;;;;;;8.05;7.25;;;;;;;22.81;100.00;96604.00;5018366;28;19952;-55
2021/06/12 06:14:41;;;;;;;8.02;7.20;;;;;;;22.65;100.00;96599.19;5016877;28;20064;-52
2021/06/12 06:17:10;;;;;;;9.40;7.15;;;;;;;22.38;100.00;96604.72;5026177;28;20088;-56
2021/06/12 06:19:38;;;;;;;8.67;7.77;;;;;;;22.64;100.00;96592.97;5017741;28;20426;-54
2021/06/12 06:22:06;;;;;;;8.05;7.25;;;;;;;22.39;100.00;96595.59;5022834;28;20065;-56
2021/06/12 06:24:35;;;;;;;8.23;7.43;;;;;;;23.16;100.00;96603.56;5021342;28;20477;-49
2021/06/12 06:27:04;;;;;;;8.25;7.50;;;;;;;22.80;100.00;96593.47;5013707;28;20077;-55
2021/06/12 06:29:32;;;;;;;9.25;8.02;;;;;;;22.57;100.00;96591.34;5015123;28;20077;-53
2021/06/12 06:32:00;;;;;;;9.50;7.85;;;;;;;23.31;100.00;96595.97;5018194;28;20080;-56
2021/06/12 06:34:30;;;;;;;9.30;8.40;;;;;;;23.70;96.45;96596.63;5018458;28;20065;-55
2021/06/12 06:36:58;;;;;;;8.35;7.50;;;;;;;23.20;98.68;96591.31;5027169;28;20079;-56
2021/06/12 06:39:27;;;;;;;8.70;7.80;;;;;;;23.38;93.36;96593.22;5017368;28;20076;-55
2021/06/12 06:41:55;;;;;;;8.98;7.95;;;;;;;23.23;100.00;96601.66;5020677;28;20476;-51
2021/06/12 06:44:23;;;;;;;8.85;7.82;;;;;;;23.88;96.96;96604.72;5016956;28;20466;-56
2021/06/12 06:46:51;;;;;;;8.90;7.93;;;;;;;23.26;98.66;96603.88;5015949;28;20081;-55
2021/06/12 06:49:20;;;;;;;11.05;8.48;;;;;;;23.52;95.88;96604.66;5019143;28;20100;-53
2021/06/12 06:51:49;;;;;;;9.25;7.70;;;;;;;23.31;93.67;96597.84;5022223;28;20081;-51
2021/06/12 06:54:17;;;;;;;8.50;7.68;;;;;;;23.19;100.00;96600.41;5018599;28;20084;-57
2021/06/12 06:56:45;;;;;;;9.05;7.90;;;;;;;23.13;99.46;96595.94;5022090;28;20088;-56
2021/06/12 06:59:14;;;;;;;10.18;8.13;;;;;;;23.33;94.78;96601.13;5016426;28;20088;-52
2021/06/12 07:01:43;;;;;;;10.77;8.23;;;;;;;23.09;99.16;96600.09;5013559;28;20066;-55
2021/06/12 07:04:11;;;;;;;9.43;8.52;;;;;;;23.44;100.00;96603.91;5016170;28;20077;-56
2021/06/12 07:06:40;;;;;;;8.30;7.45;;;;;;;23.55;100.00;96604.22;5023804;28;20081;-53
2021/06/12 07:09:10;;;;;;;8.88;7.97;;;;;;;23.27;98.72;96597.47;5021927;28;20505;-54
2021/06/12 07:11:39;;;;;;;8.20;7.40;;;;;;;23.59;100.00;96597.34;5018155;28;20149;-52
2021/06/12 07:14:08;;;;;;;8.85;8.02;;;;;;;23.65;93.63;96594.59;5015657;28;20083;-52
2021/06/12 07:16:36;;;;;;;9.02;8.05;;;;;;;23.32;100.00;96604.84;5017960;28;20066;-50
2021/06/12 07:19:04;;;;;;;8.90;8.05;;;;;;;23.66;100.00;96608.88;5024823;28;20079;-54
2021/06/12 07:21:33;;;;;;;8.68;7.88;;;;;;;23.64;100.00;96603.72;5024976;28;20065;-52
2021/06/12 07:24:01;;;;;;;8.95;8.05;;;;;;;24.17;100.00;96599.59;5019745;28;20072;-55
2021/06/12 07:26:31;;;;;;;9.20;8.40;;;;;;;24.15;92.58;96599.00;5017561;28;20077;-52
2021/06/12 07:28:59;;;;;;;12.02;8.20;;;;;;;23.74;100.00;96597.00;5023597;28;20580;-54
2021/06/12 07:31:36;;;;;;;9.27;8.32;;;;;;;23.84;100.00;96598.13;5015077;28;20064;-55
2021/06/12 07:34:05;;;;;;;9.27;8.25;;;;;;;23.90;99.17;96591.00;5000780;28;20073;-55
2021/06/12 07:36:33;;;;;;;9.18;8.27;;;;;;;24.25;99.05;96587.66;5021706;28;20076;-55
2021/06/12 07:39:02;;;;;;;9.80;8.73;;;;;;;24.54;94.81;96586.88;5020111;28;20058;-56
2021/06/12 07:41:33;;;;;;;11.85;8.73;;;;;;;24.81;92.80;96581.91;5019534;28;20227;-52
2021/06/12 07:44:02;;;;;;;9.02;8.13;;;;;;;25.17;89.62;96588.19;5022326;28;20933;-57
2021/06/12 07:46:30;;;;;;;8.95;8.05;;;;;;;24.92;89.69;96590.25;5023274;28;20064;-55
2021/06/12 07:48:59;;;;;;;8.48;7.40;;;;;;;24.68;81.15;96586.69;5022141;28;20057;-57
2021/06/12 07:51:32;;;;;;;9.32;7.72;;;;;;;25.04;74.38;96591.09;5016919;28;20464;-52
2021/06/12 07:54:01;;;;;;;8.13;7.32;;;;;;;25.44;77.78;96591.25;5019884;28;20072;-54
2021/06/12 07:56:29;;;;;;;8.00;7.20;;;;;;;25.10;78.73;96595.56;5021619;28;20065;-58
2021/06/12 07:58:59;;;;;;;8.55;7.75;;;;;;;25.48;78.52;96597.00;5020258;28;20080;-57
2021/06/12 08:01:27;;;;;;;11.57;8.07;;;;;;;25.34;82.04;96599.94;5021831;28;20070;-54
2021/06/12 08:03:56;;;;;;;8.90;8.00;;;;;;;25.11;78.36;96594.53;5023325;28;20508;-57
2021/06/12 08:06:24;;;;;;;9.68;8.65;;;;;;;25.26;76.82;96600.28;5015662;28;20068;-57
2021/06/12 08:08:52;;;;;;;9.43;8.43;;;;;;;25.44;77.07;96590.44;5019012;28;20073;-52
2021/06/12 08:11:20;;;;;;;9.13;8.23;;;;;;;26.10;77.08;96596.47;5019790;28;20069;-56
2021/06/12 08:13:48;;;;;;;10.55;9.55;;;;;;;26.03;73.14;96599.28;5017900;28;20521;-54
2021/06/12 08:16:18;;;;;;;18.90;9.30;;;;;;;26.73;67.50;96590.91;5018912;28;20086;-55
2021/06/12 08:18:46;;;;;;;9.35;8.35;;;;;;;27.02;64.71;96584.63;5021177;28;20080;-49
2021/06/12 08:21:14;;;;;;;10.38;9.27;;;;;;;26.67;63.47;96580.22;5023304;28;20069;-57
2021/06/12 08:23:42;;;;;;;17.10;10.02;;;;;;;26.93;66.03;96585.03;5021112;28;20544;-58
2021/06/12 08:26:11;;;;;;;11.63;9.70;;;;;;;26.71;65.74;96581.41;5016674;28;20087;-57
2021/06/12 08:28:39;;;;;;;11.70;10.52;;;;;;;26.62;64.49;96586.38;5019223;28;20511;-57
2021/06/12 08:31:07;;;;;;;10.45;9.45;;;;;;;26.82;68.01;96577.81;5022858;28;20085;-58
2021/06/12 08:33:37;;;;;;;11.02;9.38;;;;;;;26.87;64.30;96577.06;5018792;28;20115;-58
2021/06/12 08:36:06;;;;;;;10.63;8.30;;;;;;;26.45;62.79;96586.31;5026063;28;20148;-53
2021/06/12 08:38:34;;;;;;;8.38;7.60;;;;;;;26.86;60.77;96578.13;5018352;28;20081;-55
2021/06/12 08:41:03;;;;;;;9.27;8.38;;;;;;;26.72;60.63;96583.84;5016099;28;20482;-55
2021/06/12 08:43:31;;;;;;;9.70;8.77;;;;;;;26.59;60.46;96586.88;5025777;28;20049;-56
2021/06/12 08:46:00;;;;;;;10.15;8.45;;;;;;;27.04;56.41;96582.47;5020860;28;20705;-52
2021/06/12 08:48:29;;;;;;;8.98;8.07;;;;;;;27.20;56.10;96585.22;5019725;28;20073;-50
2021/06/12 08:50:58;;;;;;;9.73;8.73;;;;;;;26.98;61.13;96578.91;5021434;28;20552;-57
2021/06/12 08:53:28;;;;;;;10.07;9.18;;;;;;;27.17;60.96;96590.31;5018740;28;20057;-51
2021/06/12 08:55:56;;;;;;;10.48;9.38;;;;;;;27.47;59.96;96578.31;5015270;28;20474;-56
2021/06/12 08:58:24;;;;;;;10.98;9.88;;;;;;;27.16;60.19;96586.78;5023131;28;20072;-54
2021/06/12 09:00:52;;;;;;;12.18;9.77;;;;;;;26.65;66.51;96594.03;5017140;28;20084;-54
2021/06/12 09:03:22;;;;;;;10.10;9.10;;;;;;;27.03;65.66;96587.09;5017925;28;20061;-56
2021/06/12 09:05:52;;;;;;;9.88;8.88;;;;;;;26.81;61.19;96587.00;5017997;28;20080;-54
2021/06/12 09:08:23;;;;;;;10.45;9.45;;;;;;;27.49;60.72;96585.09;5018757;28;20061;-52
2021/06/12 09:10:55;;;;;;;10.02;8.77;;;;;;;27.62;59.60;96586.63;5020084;28;20064;-56
2021/06/12 09:13:37;;;;;;;9.70;8.70;;;;;;;27.09;57.33;96582.59;5017982;28;20069;-54
2021/06/12 09:16:07;;;;;;;8.73;7.72;;;;;;;27.43;53.28;96575.28;5018750;28;20072;-57
2021/06/12 09:18:38;;;;;;;8.10;7.30;;;;;;;27.66;52.74;96575.03;5026334;28;20078;-54
2021/06/12 09:21:08;;;;;;;8.45;7.55;;;;;;;28.21;52.78;96581.44;5019674;28;20077;-57
2021/06/12 09:23:43;;;;;;;11.25;8.02;;;;;;;28.22;50.02;96574.13;5014472;28;20077;-55
2021/06/12 09:26:13;;;;;;;10.13;8.75;;;;;;;27.78;52.39;96585.00;5014606;28;20066;-57
2021/06/12 09:28:49;;;;;;;9.70;8.80;;;;;;;27.54;53.44;96579.75;5019757;28;20068;-57
2021/06/12 09:31:28;;;;;;;8.57;7.80;;;;;;;27.95;51.27;96583.06;5016042;28;20069;-54
2021/06/12 09:33:56;;;;;;;8.80;7.93;;;;;;;28.21;53.43;96589.59;5019051;28;20485;-51
2021/06/12 09:36:42;;;;;;;8.57;7.63;;;;;;;27.53;52.05;96580.84;5018648;28;20514;-48
2021/06/12 09:39:14;;;;;;;9.02;8.13;;;;;;;27.66;53.42;96588.59;5018595;28;20478;-55
2021/06/12 09:41:44;;;;;;;9.68;8.57;;;;;;;27.50;55.32;96583.22;5017846;28;20092;-54
2021/06/12 09:44:29;;;;;;;9.20;8.40;;;;;;;27.67;54.79;96587.53;5021562;28;20077;-57
2021/06/12 09:46:58;;;;;;;8.68;7.72;;;;;;;27.39;54.54;96590.38;5018661;28;20069;-54
2021/06/12 09:49:32;;;;;;;8.93;8.05;;;;;;;27.80;51.61;96586.38;5022494;28;20472;-53
2021/06/12 09:52:08;;;;;;;9.95;7.60;;;;;;;28.17;49.19;96580.31;5020783;28;20100;-55
2021/06/12 09:54:41;;;;;;;11.75;8.40;;;;;;;28.10;50.94;96580.50;5011373;28;21479;-56
2021/06/12 09:57:11;;;;;;;9.38;8.40;;;;;;;27.95;54.79;96577.63;5013785;28;20108;-53
2021/06/12 09:59:41;;;;;;;8.20;7.50;;;;;;;28.06;54.77;96575.84;5023606;28;20541;-56
2021/06/12 10:02:09;;;;;;;7.00;6.30;;;;;;;27.40;49.42;96583.91;5026957;23;20107;-63
2021/06/12 10:04:41;;;;;;;7.80;7.00;;;;;;;27.43;48.27;96572.56;5003172;28;20062;-62
2021/06/12 10:07:10;;;;;;;7.05;6.30;;;;;;;27.49;47.46;96573.44;5000025;28;20085;-62
2021/06/12 10:09:39;;;;;;;11.73;6.55;;;;;;;27.37;47.60;96578.97;5006336;28;20085;-62
2021/06/12 10:12:09;;;;;;;6.95;6.28;;;;;;;27.45;48.73;96576.66;5000514;28;20705;-62
2021/06/12 10:14:37;;;;;;;7.50;6.80;;;;;;;27.48;47.17;96579.94;4995211;28;20544;-62
2021/06/12 10:17:06;;;;;;;7.60;6.90;;;;;;;28.39;48.68;96583.06;4995909;28;20057;-58
2021/06/12 10:19:45;;;;;;;7.47;6.78;;;;;;;28.08;46.33;96585.38;4998281;28;20469;-62
2021/06/12 10:22:15;;;;;;;7.82;6.97;;;;;;;27.74;47.69;96587.34;4999097;28;20482;-62
2021/06/12 10:24:45;;;;;;;8.50;7.60;;;;;;;27.42;48.98;96587.16;5005057;28;20078;-60
2021/06/12 10:27:14;;;;;;;8.13;6.90;;;;;;;27.66;47.43;96585.06;4999950;28;20081;-63
2021/06/12 10:29:43;;;;;;;6.50;5.90;;;;;;;28.04;45.89;96569.84;4995632;28;20085;-62
2021/06/12 10:32:13;;;;;;;7.40;6.70;;;;;;;27.66;45.54;96579.66;4997765;28;20562;-62
2021/06/12 10:34:42;;;;;;;6.40;5.80;;;;;;;27.67;46.25;96581.31;5000892;28;20073;-63
2021/06/12 10:37:12;;;;;;;8.93;5.75;;;;;;;27.88;45.88;96577.00;4998369;28;20082;-62
2021/06/12 10:39:41;;;;;;;6.57;5.93;;;;;;;27.92;47.76;96567.28;5000733;28;20077;-60
2021/06/12 10:42:17;;;;;;;6.68;5.88;;;;;;;28.21;45.62;96564.34;5002255;28;20073;-62
2021/06/12 10:44:47;;;;;;;6.40;5.80;;;;;;;28.34;45.24;96574.81;5004580;28;20074;-62
2021/06/12 10:47:37;;;;;;;7.57;6.32;;;;;;;28.85;45.14;96572.63;4999083;28;20073;-62
2021/06/12 10:50:29;;;;;;;6.78;6.18;;;;;;;29.29;45.77;96572.47;5003162;28;20092;-62
2021/06/12 10:53:19;;;;;;;7.07;5.63;;;;;;;28.82;45.29;96560.38;5004712;28;20584;-61
2021/06/12 10:55:49;;;;;;;6.07;5.47;;;;;;;28.93;44.92;96558.56;5003189;28;20189;-62
2021/06/12 10:58:40;;;;;;;5.75;5.25;;;;;;;28.97;44.05;96550.72;5002827;28;20109;-58
2021/06/12 11:01:11;;;;;;;6.78;6.05;;;;;;;28.96;45.61;96543.66;4999036;28;20534;-61
2021/06/12 11:03:57;;;;;;;6.82;5.55;;;;;;;29.19;44.48;96542.53;5003734;28;20085;-62
2021/06/12 11:06:36;;;;;;;7.90;5.57;;;;;;;28.52;46.30;96539.22;5003802;28;20069;-62
2021/06/12 11:09:39;;;;;;;7.13;5.57;;;;;;;29.12;45.24;96541.94;4999588;28;20068;-63
2021/06/12 11:12:35;;;;;;;6.32;5.72;;;;;;;29.46;43.82;96543.25;4992684;28;20069;-61
2021/06/12 11:15:07;;;;;;;6.30;5.70;;;;;;;29.96;42.50;96533.69;4999331;28;20552;-62
2021/06/12 11:17:36;;;;;;;6.05;5.53;;;;;;;29.77;45.39;96533.38;5005287;28;20069;-57
2021/06/12 11:20:27;;;;;;;6.70;5.60;;;;;;;29.50;44.67;96517.16;5002491;28;20611;-62
2021/06/12 11:22:57;;;;;;;6.78;6.13;;;;;;;29.00;45.38;96523.09;5004963;28;20069;-62
2021/06/12 11:25:46;;;;;;;6.07;4.88;;;;;;;29.29;43.08;96518.13;4999851;28;20069;-62
2021/06/12 11:28:22;;;;;;;4.70;4.20;;;;;;;29.52;41.72;96517.69;4999015;28;21384;-60
2021/06/12 11:30:53;;;;;;;4.90;3.88;;;;;;;29.55;41.23;96519.09;5001922;28;20073;-58
2021/06/12 11:33:21;;;;;;;3.90;3.60;;;;;;;30.04;41.07;96510.59;5005081;28;20538;-59
2021/06/12 11:35:51;;;;;;;6.88;3.95;;;;;;;29.20;40.09;96519.69;4999795;28;20509;-61
2021/06/12 11:38:21;;;;;;;6.03;4.65;;;;;;;29.36;40.84;96516.00;4998845;28;20061;-62
2021/06/12 11:40:55;;;;;;;5.35;4.25;;;;;;;29.19;43.06;96510.75;5001657;28;20069;-60